ルクソール の空港の天気 - METARとTAF

ルクソール国際空港 ( HELX / LXR ) - エジプト ルクソール
飛行場実況気象(Metar)
観測時間08/22 18:00 EET (08/22 16:00 UTC)
風向・風速西 4m/s
視程10km以上
天気現象
なし
気温37℃
湿度27%
気圧1004hPa
METARHELX 221600Z 26008KT CAVOK 37/15 Q1004 NOSIG
過去の天気等 Google飛行場航空写真 Wunderground天気予報

過去48時間のMETAR

飛行場予報(TAF)
発表時間: 8/22 13:00 EET (8/22 11:00 UTC)
予報対象時間: 22日14時 EET ~ 23日20時 EET
風向・風速北西 6m/s
視程10km以上
なし
TAF HELX 221100Z 2212/2318 31012KT CAVOK